createdAt,value
2023-08-08T00:00:56.477Z,14.16
2023-08-08T00:02:11.056Z,14.16
2023-08-08T00:03:14.729Z,14.17
2023-08-08T00:04:17.715Z,14.18
2023-08-08T00:05:20.715Z,14.20
2023-08-08T00:06:23.577Z,14.21
2023-08-08T00:07:26.529Z,14.22
2023-08-08T00:08:29.382Z,14.24
2023-08-08T00:09:32.224Z,14.24
2023-08-08T00:10:35.189Z,14.26
2023-08-08T00:11:38.032Z,14.28
2023-08-08T00:12:40.825Z,14.29
2023-08-08T00:13:43.928Z,14.30
2023-08-08T00:14:46.772Z,14.31
2023-08-08T00:15:49.754Z,14.32
2023-08-08T00:16:52.683Z,14.32
2023-08-08T00:17:55.857Z,14.33
2023-08-08T00:18:58.672Z,14.34
2023-08-08T00:20:01.716Z,14.36
2023-08-08T00:21:05.119Z,14.37
2023-08-08T00:22:08.019Z,14.39
2023-08-08T00:23:10.921Z,14.40
2023-08-08T00:24:13.805Z,14.42
2023-08-08T00:25:16.685Z,14.42
2023-08-08T00:26:19.519Z,14.43
2023-08-08T00:27:22.544Z,14.44
2023-08-08T00:28:25.884Z,14.46
2023-08-08T00:29:29.809Z,14.46
2023-08-08T00:30:32.734Z,14.46
2023-08-08T00:31:35.759Z,14.47
2023-08-08T00:32:38.803Z,14.48
2023-08-08T00:33:41.726Z,14.48
2023-08-08T00:34:44.695Z,14.49
2023-08-08T00:35:47.598Z,14.49
2023-08-08T00:36:50.840Z,14.50
2023-08-08T00:37:54.418Z,14.50
2023-08-08T00:38:57.269Z,14.50
2023-08-08T00:40:00.209Z,14.50
2023-08-08T00:41:03.158Z,14.51
2023-08-08T00:42:06.449Z,14.51
2023-08-08T00:43:09.265Z,14.52
2023-08-08T00:44:12.097Z,14.52
2023-08-08T00:45:15.079Z,14.52
2023-08-08T00:46:23.572Z,14.52
2023-08-08T00:47:26.827Z,14.52
2023-08-08T00:48:29.757Z,14.53
2023-08-08T00:49:32.636Z,14.53
2023-08-08T00:50:37.515Z,14.52
2023-08-08T00:51:40.416Z,14.52
2023-08-08T00:52:44.509Z,14.52
2023-08-08T00:53:48.582Z,14.53
2023-08-08T00:54:51.568Z,14.54
2023-08-08T00:55:55.481Z,14.54
2023-08-08T00:56:58.479Z,14.54
2023-08-08T00:58:01.600Z,14.54
2023-08-08T00:59:05.759Z,14.54
2023-08-08T01:00:12.848Z,14.55
2023-08-08T01:01:16.128Z,14.54
2023-08-08T01:02:20.979Z,14.54
2023-08-08T01:03:24.014Z,14.54
2023-08-08T01:04:28.233Z,14.54
2023-08-08T01:05:44.615Z,14.54
2023-08-08T01:06:59.215Z,14.53
2023-08-08T01:08:07.838Z,14.54
2023-08-08T01:09:20.550Z,14.53
2023-08-08T01:10:29.553Z,14.53
2023-08-08T01:11:35.894Z,14.52
2023-08-08T01:12:46.267Z,14.53
2023-08-08T01:13:51.475Z,14.53
2023-08-08T01:14:55.778Z,14.54
2023-08-08T01:15:58.995Z,14.54
2023-08-08T01:17:02.970Z,14.54
2023-08-08T01:18:07.516Z,14.53
2023-08-08T01:19:16.175Z,14.53
2023-08-08T01:20:19.532Z,14.53
2023-08-08T01:21:22.414Z,14.53
2023-08-08T01:22:36.818Z,14.52
2023-08-08T01:23:47.314Z,14.52
2023-08-08T01:24:50.972Z,14.51
2023-08-08T01:25:55.166Z,14.51
2023-08-08T01:26:58.460Z,14.50
2023-08-08T01:28:01.566Z,14.50
2023-08-08T01:29:04.459Z,14.50
2023-08-08T01:30:10.559Z,14.51
2023-08-08T01:32:50.594Z,14.50
2023-08-08T01:33:53.592Z,14.50
2023-08-08T01:34:56.510Z,14.50
2023-08-08T01:36:10.337Z,14.49
2023-08-08T01:37:40.608Z,14.50
2023-08-08T01:38:47.915Z,14.50
2023-08-08T01:39:52.032Z,14.50
2023-08-08T01:40:57.672Z,14.50
2023-08-08T01:42:02.825Z,14.52
2023-08-08T01:43:06.290Z,14.52
2023-08-08T01:44:10.089Z,14.52
2023-08-08T01:45:13.717Z,14.52
2023-08-08T01:46:16.823Z,14.53
2023-08-08T01:47:19.636Z,14.52
2023-08-08T01:48:22.425Z,14.54
2023-08-08T01:49:25.712Z,14.54
2023-08-08T01:50:28.890Z,14.54
2023-08-08T01:51:31.900Z,14.54
2023-08-08T01:52:34.720Z,14.55
2023-08-08T01:53:39.686Z,14.56
2023-08-08T01:54:43.574Z,14.56
2023-08-08T01:55:46.444Z,14.56
2023-08-08T01:56:49.327Z,14.56
2023-08-08T01:57:52.575Z,14.56
2023-08-08T01:58:55.464Z,14.56
2023-08-08T01:59:58.539Z,14.55
2023-08-08T02:01:01.372Z,14.55
2023-08-08T02:02:04.617Z,14.56
2023-08-08T02:03:08.002Z,14.55
2023-08-08T02:04:11.374Z,14.54
2023-08-08T02:05:15.278Z,14.54
2023-08-08T02:06:18.217Z,14.53
2023-08-08T02:07:21.675Z,14.53
2023-08-08T02:08:24.724Z,14.51
2023-08-08T02:09:28.118Z,14.51
2023-08-08T02:10:31.052Z,14.50
2023-08-08T02:11:33.931Z,14.50
2023-08-08T02:12:36.829Z,14.49
2023-08-08T02:13:39.659Z,14.48
2023-08-08T02:14:42.590Z,14.47
2023-08-08T02:15:45.728Z,14.47
2023-08-08T02:16:48.585Z,14.47
2023-08-08T02:17:51.606Z,14.46
2023-08-08T02:18:54.500Z,14.46
2023-08-08T02:19:57.821Z,14.46
2023-08-08T02:21:00.907Z,14.46
2023-08-08T02:22:03.940Z,14.46
2023-08-08T02:23:06.984Z,14.46
2023-08-08T02:24:10.193Z,14.45
2023-08-08T02:25:13.191Z,14.44
2023-08-08T02:26:16.412Z,14.44
2023-08-08T02:27:19.531Z,14.44
2023-08-08T02:28:22.490Z,14.43
2023-08-08T02:29:25.401Z,14.43
2023-08-08T02:30:28.308Z,14.43
2023-08-08T02:31:31.259Z,14.43
2023-08-08T02:32:34.230Z,14.43
2023-08-08T02:33:37.113Z,14.43
2023-08-08T02:34:40.061Z,14.43
2023-08-08T02:35:43.473Z,14.44
2023-08-08T02:36:46.762Z,14.43
2023-08-08T02:37:49.837Z,14.42
2023-08-08T02:38:54.605Z,14.43
2023-08-08T02:39:57.630Z,14.42
2023-08-08T02:41:00.478Z,14.42
2023-08-08T02:42:03.699Z,14.42
2023-08-08T02:43:06.658Z,14.42
2023-08-08T02:44:09.609Z,14.43
2023-08-08T02:45:12.648Z,14.43
2023-08-08T02:46:15.549Z,14.44
2023-08-08T02:47:18.477Z,14.43
2023-08-08T02:48:21.473Z,14.43
2023-08-08T02:49:24.382Z,14.43
2023-08-08T02:50:27.316Z,14.43
2023-08-08T02:51:30.551Z,14.43
2023-08-08T02:52:33.486Z,14.43
2023-08-08T02:53:36.538Z,14.43
2023-08-08T02:54:39.428Z,14.43
2023-08-08T02:55:42.288Z,14.42
2023-08-08T02:56:45.234Z,14.42
2023-08-08T02:57:48.404Z,14.42
2023-08-08T02:58:51.371Z,14.43
2023-08-08T02:59:54.258Z,14.42
2023-08-08T03:00:57.191Z,14.42
2023-08-08T03:02:01.744Z,14.42
2023-08-08T03:03:05.147Z,14.42
2023-08-08T03:04:08.682Z,14.41
2023-08-08T03:05:11.830Z,14.41
2023-08-08T03:06:15.032Z,14.42
2023-08-08T03:07:18.118Z,14.42
2023-08-08T03:08:21.807Z,14.42
2023-08-08T03:09:24.764Z,14.42
2023-08-08T03:10:27.727Z,14.42
2023-08-08T03:11:30.592Z,14.41
2023-08-08T03:12:33.485Z,14.41
2023-08-08T03:13:38.438Z,14.42
2023-08-08T03:14:41.368Z,14.42
2023-08-08T03:15:44.415Z,14.42
2023-08-08T03:16:47.415Z,14.42
2023-08-08T03:17:50.460Z,14.41
2023-08-08T03:18:54.205Z,14.42
2023-08-08T03:19:57.109Z,14.42
2023-08-08T03:21:01.718Z,14.42
2023-08-08T03:22:06.618Z,14.43
2023-08-08T03:23:10.720Z,14.43
2023-08-08T03:24:14.094Z,14.44
2023-08-08T03:25:17.157Z,14.44
2023-08-08T03:26:20.042Z,14.44
2023-08-08T03:27:22.984Z,14.46
2023-08-08T03:28:27.964Z,14.46
2023-08-08T03:29:32.065Z,14.46
2023-08-08T03:30:38.520Z,14.46
2023-08-08T03:31:42.155Z,14.47
2023-08-08T03:32:45.064Z,14.48
2023-08-08T03:33:48.897Z,14.49
2023-08-08T03:34:52.193Z,14.50
2023-08-08T03:35:55.011Z,14.50
2023-08-08T03:36:58.069Z,14.50
2023-08-08T03:38:01.545Z,14.51
2023-08-08T03:39:04.775Z,14.52
2023-08-08T03:40:11.967Z,14.52
2023-08-08T03:41:15.016Z,14.52
2023-08-08T03:42:18.017Z,14.52
2023-08-08T03:43:20.891Z,14.53
2023-08-08T03:44:24.258Z,14.53
2023-08-08T03:45:27.144Z,14.54
2023-08-08T03:46:30.919Z,14.55
2023-08-08T03:47:34.037Z,14.55
2023-08-08T03:48:37.256Z,14.55
2023-08-08T03:49:40.064Z,14.56
2023-08-08T03:50:43.132Z,14.56
2023-08-08T03:51:46.027Z,14.56
2023-08-08T03:52:48.908Z,14.58
2023-08-08T03:53:51.765Z,14.57
2023-08-08T03:54:54.865Z,14.58
2023-08-08T03:55:59.009Z,14.58
2023-08-08T03:57:02.421Z,14.58
2023-08-08T03:58:06.506Z,14.57
2023-08-08T03:59:10.998Z,14.57
2023-08-08T04:00:14.172Z,14.57
2023-08-08T04:01:17.044Z,14.57
2023-08-08T04:02:19.976Z,14.58
2023-08-08T04:03:24.571Z,14.58
2023-08-08T04:04:27.444Z,14.59
2023-08-08T04:05:30.380Z,14.59
2023-08-08T04:06:33.251Z,14.60
2023-08-08T04:07:36.419Z,14.62
2023-08-08T04:08:39.254Z,14.62
2023-08-08T04:09:44.781Z,14.63
2023-08-08T04:10:48.380Z,14.63
2023-08-08T04:11:52.433Z,14.63
2023-08-08T04:13:20.383Z,14.64
2023-08-08T04:14:23.215Z,14.64
2023-08-08T04:15:26.136Z,14.64
2023-08-08T04:16:29.570Z,14.64
2023-08-08T04:17:32.655Z,14.65
2023-08-08T04:18:35.483Z,14.66
2023-08-08T04:19:38.428Z,14.67
2023-08-08T04:20:41.360Z,14.68
2023-08-08T04:21:44.178Z,14.68
2023-08-08T04:22:47.268Z,14.68
2023-08-08T04:23:50.254Z,14.68
2023-08-08T04:24:53.112Z,14.69
2023-08-08T04:25:56.094Z,14.69
2023-08-08T04:26:59.208Z,14.67
2023-08-08T04:28:02.133Z,14.68
2023-08-08T04:29:06.568Z,14.69
2023-08-08T04:30:10.546Z,14.69
2023-08-08T04:31:13.499Z,14.71
2023-08-08T04:32:16.824Z,14.72
2023-08-08T04:33:19.724Z,14.72
2023-08-08T04:34:23.110Z,14.71
2023-08-08T04:35:28.397Z,14.72
2023-08-08T04:36:33.825Z,14.70
2023-08-08T04:37:36.701Z,14.70
2023-08-08T04:38:39.634Z,14.68
2023-08-08T04:39:42.732Z,14.67
2023-08-08T04:40:46.509Z,14.66
2023-08-08T04:41:49.702Z,14.65
2023-08-08T04:42:53.227Z,14.64
2023-08-08T04:43:56.129Z,14.64
2023-08-08T04:44:58.925Z,14.63
2023-08-08T04:46:01.867Z,14.63
2023-08-08T04:47:05.775Z,14.63
2023-08-08T04:48:08.727Z,14.63
2023-08-08T04:49:11.816Z,14.63
2023-08-08T04:50:14.780Z,14.64
2023-08-08T04:51:17.805Z,14.63
2023-08-08T04:52:20.692Z,14.64
2023-08-08T04:53:23.628Z,14.64
2023-08-08T04:54:26.525Z,14.64
2023-08-08T04:55:29.495Z,14.65
2023-08-08T04:56:32.381Z,14.66
2023-08-08T04:57:35.270Z,14.67
2023-08-08T04:58:38.143Z,14.69
2023-08-08T04:59:41.270Z,14.71
2023-08-08T05:00:44.205Z,14.73
2023-08-08T05:01:47.084Z,14.75
2023-08-08T05:02:50.048Z,14.76
2023-08-08T05:03:54.643Z,14.78
2023-08-08T05:04:59.318Z,14.79
2023-08-08T05:06:03.013Z,14.80
2023-08-08T05:07:07.088Z,14.81
2023-08-08T05:08:09.882Z,14.80
2023-08-08T05:09:12.830Z,14.80
2023-08-08T05:10:15.768Z,14.79
2023-08-08T05:11:18.654Z,14.78
2023-08-08T05:12:21.532Z,14.77
2023-08-08T05:13:24.445Z,14.77
2023-08-08T05:14:27.334Z,14.78
2023-08-08T05:15:30.264Z,14.79
2023-08-08T05:16:33.286Z,14.82
2023-08-08T05:17:36.282Z,14.83
2023-08-08T05:18:39.183Z,14.85
2023-08-08T05:19:42.032Z,14.86
2023-08-08T05:20:44.913Z,14.86
2023-08-08T05:21:48.525Z,14.86
2023-08-08T05:22:52.668Z,14.87
2023-08-08T05:23:55.693Z,14.87
2023-08-08T05:24:58.678Z,14.88
2023-08-08T05:26:01.598Z,14.89
2023-08-08T05:27:04.983Z,14.91
2023-08-08T05:28:08.043Z,14.93
2023-08-08T05:29:13.008Z,14.94
2023-08-08T05:30:15.860Z,14.95
2023-08-08T05:31:19.102Z,14.97
2023-08-08T05:32:22.179Z,14.99
2023-08-08T05:33:25.058Z,15.01
2023-08-08T05:34:27.940Z,15.03
2023-08-08T05:35:31.627Z,15.05
2023-08-08T05:36:34.699Z,15.08
2023-08-08T05:37:37.573Z,15.11
2023-08-08T05:38:40.561Z,15.12
2023-08-08T05:39:43.818Z,15.14
2023-08-08T05:40:46.807Z,15.16
2023-08-08T05:41:49.684Z,15.18
2023-08-08T05:42:52.670Z,15.21
2023-08-08T05:43:55.513Z,15.24
2023-08-08T05:44:58.999Z,15.28
2023-08-08T05:46:02.079Z,15.30
2023-08-08T05:47:05.373Z,15.32
2023-08-08T05:48:08.527Z,15.34
2023-08-08T05:49:11.534Z,15.38
2023-08-08T05:50:14.525Z,15.40
2023-08-08T05:51:17.615Z,15.41
2023-08-08T05:52:22.479Z,15.40
2023-08-08T05:53:25.881Z,15.40
2023-08-08T05:54:29.304Z,15.40
2023-08-08T05:55:32.488Z,15.41
2023-08-08T05:56:39.053Z,15.41
2023-08-08T05:57:42.305Z,15.43
2023-08-08T05:58:45.486Z,15.44
2023-08-08T05:59:49.604Z,15.46
2023-08-08T06:00:53.550Z,15.47
2023-08-08T06:01:56.912Z,15.48
2023-08-08T06:03:00.105Z,15.48
2023-08-08T06:04:04.633Z,15.49
2023-08-08T06:05:08.628Z,15.49
2023-08-08T06:06:11.547Z,15.49
2023-08-08T06:07:14.454Z,15.48
2023-08-08T06:08:17.742Z,15.48
2023-08-08T06:09:20.813Z,15.48
2023-08-08T06:10:23.981Z,15.48
2023-08-08T06:11:26.883Z,15.49
2023-08-08T06:12:29.790Z,15.49
2023-08-08T06:13:32.837Z,15.50
2023-08-08T06:14:35.790Z,15.50
2023-08-08T06:15:38.851Z,15.52
2023-08-08T06:16:42.620Z,15.52
2023-08-08T06:17:45.573Z,15.52
2023-08-08T06:18:48.738Z,15.52
2023-08-08T06:19:51.667Z,15.51
2023-08-08T06:20:54.571Z,15.52
2023-08-08T06:21:57.644Z,15.51
2023-08-08T06:23:00.542Z,15.51
2023-08-08T06:24:03.580Z,15.52
2023-08-08T06:25:07.120Z,15.52
2023-08-08T06:26:10.569Z,15.55
2023-08-08T06:27:15.209Z,15.55
2023-08-08T06:28:18.229Z,15.56
2023-08-08T06:29:21.270Z,15.57
2023-08-08T06:30:24.403Z,15.58
2023-08-08T06:31:27.440Z,15.59
2023-08-08T06:32:30.312Z,15.60
2023-08-08T06:33:33.193Z,15.60
2023-08-08T06:34:36.137Z,15.60
2023-08-08T06:35:40.463Z,15.59
2023-08-08T06:36:43.931Z,15.59
2023-08-08T06:37:46.737Z,15.60
2023-08-08T06:38:49.716Z,15.61
2023-08-08T06:39:52.543Z,15.65
2023-08-08T06:40:57.177Z,15.72
2023-08-08T06:42:00.145Z,15.77
2023-08-08T06:43:14.601Z,15.83
2023-08-08T06:44:17.483Z,15.88
2023-08-08T06:45:20.393Z,15.93
2023-08-08T06:46:23.824Z,15.98
2023-08-08T06:47:26.940Z,16.02
2023-08-08T06:48:29.957Z,16.06
2023-08-08T06:49:32.848Z,16.08
2023-08-08T06:50:35.926Z,16.10
2023-08-08T06:51:38.798Z,16.11
2023-08-08T06:52:41.661Z,16.10
2023-08-08T06:53:44.683Z,16.09
2023-08-08T06:54:47.783Z,16.11
2023-08-08T06:55:50.709Z,16.13
2023-08-08T06:56:53.767Z,16.14
2023-08-08T06:57:56.600Z,16.17
2023-08-08T06:58:59.817Z,16.17
2023-08-08T07:00:06.477Z,16.18
2023-08-08T07:01:09.865Z,16.19
2023-08-08T07:02:12.818Z,16.20
2023-08-08T07:03:15.809Z,16.22
2023-08-08T07:04:19.231Z,16.23
2023-08-08T07:05:23.721Z,16.24
2023-08-08T07:06:26.694Z,16.25
2023-08-08T07:07:31.264Z,16.28
2023-08-08T07:08:34.183Z,16.28
2023-08-08T07:09:38.477Z,16.30
2023-08-08T07:10:41.329Z,16.31
2023-08-08T07:11:44.639Z,16.31
2023-08-08T07:12:47.729Z,16.30
2023-08-08T07:13:50.593Z,16.27
2023-08-08T07:14:53.512Z,16.26
2023-08-08T07:15:56.527Z,16.25
2023-08-08T07:16:59.802Z,16.25
2023-08-08T07:18:02.815Z,16.26
2023-08-08T07:19:07.242Z,16.28
2023-08-08T07:20:14.879Z,16.29
2023-08-08T07:21:17.874Z,16.33
2023-08-08T07:22:20.820Z,16.36
2023-08-08T07:23:24.182Z,16.38
2023-08-08T07:24:29.703Z,16.39
2023-08-08T07:25:32.588Z,16.40
2023-08-08T07:26:35.431Z,16.43
2023-08-08T07:27:38.746Z,16.45
2023-08-08T07:28:41.894Z,16.46
2023-08-08T07:29:44.834Z,16.48
2023-08-08T07:30:47.834Z,16.52
2023-08-08T07:31:53.347Z,16.56
2023-08-08T07:32:56.430Z,16.59
2023-08-08T07:33:59.614Z,16.61
2023-08-08T07:35:03.902Z,16.63
2023-08-08T07:36:07.089Z,16.64
2023-08-08T07:37:10.027Z,16.68
2023-08-08T07:38:12.983Z,16.71
2023-08-08T07:39:16.099Z,16.75
2023-08-08T07:40:20.463Z,16.79
2023-08-08T07:41:25.431Z,16.85
2023-08-08T07:42:28.619Z,16.91
2023-08-08T07:43:31.602Z,16.96
2023-08-08T07:44:35.842Z,17.00
2023-08-08T07:45:39.006Z,17.02
2023-08-08T07:46:42.160Z,17.01
2023-08-08T07:47:45.039Z,17.00
2023-08-08T07:48:48.035Z,17.00
2023-08-08T07:49:51.015Z,17.02
2023-08-08T07:50:54.223Z,17.03
2023-08-08T07:51:57.148Z,17.03
2023-08-08T07:53:00.121Z,17.03
2023-08-08T07:54:03.394Z,17.05
2023-08-08T07:55:06.915Z,17.07
2023-08-08T07:56:09.804Z,17.09
2023-08-08T07:57:12.652Z,17.11
2023-08-08T07:58:15.979Z,17.10
2023-08-08T07:59:18.930Z,17.07
2023-08-08T08:00:22.882Z,17.05
2023-08-08T08:01:28.353Z,17.03
2023-08-08T08:02:31.645Z,16.98
2023-08-08T08:03:34.772Z,16.94
2023-08-08T08:04:37.665Z,16.91
2023-08-08T08:05:40.536Z,16.91
2023-08-08T08:06:45.016Z,16.90
2023-08-08T08:07:48.925Z,16.89
2023-08-08T08:08:51.983Z,16.90
2023-08-08T08:09:54.922Z,16.93
2023-08-08T08:10:57.912Z,16.98
2023-08-08T08:12:00.993Z,17.04
2023-08-08T08:13:04.339Z,17.11
2023-08-08T08:14:07.297Z,17.16
2023-08-08T08:15:11.497Z,17.20
2023-08-08T08:16:14.611Z,17.24
2023-08-08T08:17:17.561Z,17.27
2023-08-08T08:18:21.287Z,17.29
2023-08-08T08:19:24.369Z,17.27
2023-08-08T08:20:27.319Z,17.23
2023-08-08T08:21:30.888Z,17.19
2023-08-08T08:22:33.875Z,17.15
2023-08-08T08:23:36.847Z,17.10
2023-08-08T08:24:39.741Z,17.07
2023-08-08T08:25:42.898Z,17.04
2023-08-08T08:26:45.785Z,17.01
2023-08-08T08:27:48.693Z,17.01
2023-08-08T08:28:51.668Z,17.01
2023-08-08T08:29:54.628Z,17.02
2023-08-08T08:30:57.568Z,17.05
2023-08-08T08:32:00.891Z,17.08
2023-08-08T08:33:05.455Z,17.09
2023-08-08T08:34:08.439Z,17.07
2023-08-08T08:35:13.777Z,17.06
2023-08-08T08:36:16.747Z,17.08
2023-08-08T08:37:19.622Z,17.10
2023-08-08T08:38:22.421Z,17.11
2023-08-08T08:39:25.296Z,17.14
2023-08-08T08:40:30.432Z,17.17
2023-08-08T08:41:36.552Z,17.20
2023-08-08T08:42:41.433Z,17.25
2023-08-08T08:43:44.716Z,17.32
2023-08-08T08:44:48.649Z,17.39
2023-08-08T08:45:54.100Z,17.47
2023-08-08T08:46:59.739Z,17.56
2023-08-08T08:48:03.126Z,17.62
2023-08-08T08:49:09.717Z,17.66
2023-08-08T08:50:15.358Z,17.67
2023-08-08T08:51:19.840Z,17.66
2023-08-08T08:52:23.897Z,17.64
2023-08-08T08:53:27.460Z,17.62
2023-08-08T08:54:33.619Z,17.60
2023-08-08T08:55:36.490Z,17.58
2023-08-08T08:56:39.418Z,17.56
2023-08-08T08:57:45.774Z,17.55
2023-08-08T08:58:48.610Z,17.52
2023-08-08T08:59:52.254Z,17.48
2023-08-08T09:00:55.652Z,17.45
2023-08-08T09:01:58.897Z,17.43
2023-08-08T09:03:02.664Z,17.42
2023-08-08T09:04:09.042Z,17.40
2023-08-08T09:05:14.489Z,17.38
2023-08-08T09:06:20.333Z,17.37
2023-08-08T09:07:27.692Z,17.39
2023-08-08T09:08:30.870Z,17.41
2023-08-08T09:09:34.038Z,17.42
2023-08-08T09:10:36.964Z,17.46
2023-08-08T09:11:41.247Z,17.51
2023-08-08T09:12:45.243Z,17.56
2023-08-08T09:13:48.210Z,17.61
2023-08-08T09:14:59.058Z,17.65
2023-08-08T09:16:01.927Z,17.69
2023-08-08T09:17:05.048Z,17.73
2023-08-08T09:18:08.953Z,17.79
2023-08-08T09:19:11.963Z,17.84
2023-08-08T09:20:15.352Z,17.90
2023-08-08T09:21:19.694Z,17.94
2023-08-08T09:22:22.703Z,17.97
2023-08-08T09:23:25.508Z,18.01
2023-08-08T09:24:28.723Z,18.04
2023-08-08T09:25:31.973Z,18.03
2023-08-08T09:26:35.684Z,18.02
2023-08-08T09:27:39.144Z,18.02
2023-08-08T09:28:42.247Z,18.03
2023-08-08T09:29:45.446Z,18.05
2023-08-08T09:30:48.599Z,18.05
2023-08-08T09:31:51.715Z,18.05
2023-08-08T09:32:54.798Z,18.05
2023-08-08T09:33:59.398Z,18.05
2023-08-08T09:35:03.316Z,18.04
2023-08-08T09:36:06.647Z,18.01
2023-08-08T09:37:11.590Z,18.00
2023-08-08T09:38:14.678Z,18.01
2023-08-08T09:39:17.763Z,18.01
2023-08-08T09:40:22.582Z,17.99
2023-08-08T09:41:26.275Z,17.96
2023-08-08T09:42:30.603Z,17.90
2023-08-08T09:43:33.672Z,17.87
2023-08-08T09:44:36.672Z,17.87
2023-08-08T09:45:42.823Z,17.88
2023-08-08T09:46:46.218Z,17.88
2023-08-08T09:47:51.180Z,17.88
2023-08-08T09:48:55.618Z,17.89
2023-08-08T09:50:01.477Z,17.96
2023-08-08T09:51:05.849Z,18.04
2023-08-08T09:52:09.006Z,18.10
2023-08-08T09:53:13.598Z,18.14
2023-08-08T09:54:17.349Z,18.18
2023-08-08T09:55:20.969Z,18.24
2023-08-08T09:56:27.023Z,18.29
2023-08-08T09:57:30.908Z,18.32
2023-08-08T09:58:34.724Z,18.35
2023-08-08T09:59:38.743Z,18.36
2023-08-08T10:00:42.502Z,18.37
2023-08-08T10:01:47.705Z,18.37
2023-08-08T10:02:51.146Z,18.37
2023-08-08T10:03:55.021Z,18.37
2023-08-08T10:04:59.642Z,18.38
2023-08-08T10:06:02.745Z,18.41
2023-08-08T10:07:05.993Z,18.43
2023-08-08T10:08:08.976Z,18.44
2023-08-08T10:09:13.040Z,18.45
2023-08-08T10:10:16.858Z,18.45
2023-08-08T10:11:23.475Z,18.45
2023-08-08T10:12:27.660Z,18.47
2023-08-08T10:13:30.507Z,18.51
2023-08-08T10:14:37.560Z,18.58
2023-08-08T10:15:41.298Z,18.67
2023-08-08T10:16:47.367Z,18.74
2023-08-08T10:17:55.342Z,18.82
2023-08-08T10:19:03.414Z,18.92
2023-08-08T10:20:12.481Z,19.03
2023-08-08T10:21:15.808Z,19.11
2023-08-08T10:22:24.481Z,19.16
2023-08-08T10:23:27.908Z,19.23
2023-08-08T10:24:35.706Z,19.24
2023-08-08T10:25:38.837Z,19.22
2023-08-08T10:27:03.359Z,19.23
2023-08-08T10:28:25.365Z,19.25
2023-08-08T10:29:32.865Z,19.28
2023-08-08T10:30:53.444Z,19.31
2023-08-08T10:32:07.738Z,19.34
2023-08-08T10:33:20.639Z,19.37
2023-08-08T10:34:37.665Z,19.39
2023-08-08T10:35:41.091Z,19.41
2023-08-08T10:36:51.845Z,19.42
2023-08-08T10:37:55.864Z,19.40
2023-08-08T10:38:59.596Z,19.41
2023-08-08T10:40:07.253Z,19.42
2023-08-08T10:41:12.705Z,19.46
2023-08-08T10:42:19.894Z,19.44
2023-08-08T10:43:30.096Z,19.45
2023-08-08T10:44:42.981Z,19.48
2023-08-08T10:45:51.968Z,19.52
2023-08-08T10:47:01.585Z,19.55
2023-08-08T10:48:11.021Z,19.58
2023-08-08T10:49:16.065Z,19.59
2023-08-08T10:50:24.051Z,19.59
2023-08-08T10:51:36.939Z,19.59
2023-08-08T10:52:54.883Z,19.58
2023-08-08T10:53:58.476Z,19.59
2023-08-08T10:55:02.794Z,19.58
2023-08-08T10:56:05.677Z,19.59
2023-08-08T10:57:17.762Z,19.61
2023-08-08T10:58:21.265Z,19.62
2023-08-08T10:59:37.148Z,19.63
2023-08-08T11:00:40.951Z,19.65
2023-08-08T11:01:47.521Z,19.65
2023-08-08T11:02:51.977Z,19.68
2023-08-08T11:03:55.480Z,19.69
2023-08-08T11:05:00.294Z,19.73
2023-08-08T11:06:04.599Z,19.78
2023-08-08T11:07:07.669Z,19.85
2023-08-08T11:08:11.189Z,19.90
2023-08-08T11:09:15.468Z,19.96
2023-08-08T11:10:19.135Z,20.00
2023-08-08T11:11:22.067Z,20.00
2023-08-08T11:12:27.639Z,19.97
2023-08-08T11:13:30.739Z,19.92
2023-08-08T11:14:33.729Z,19.88
2023-08-08T11:15:39.133Z,19.85
2023-08-08T11:16:44.389Z,19.80
2023-08-08T11:17:47.392Z,19.73
2023-08-08T11:18:50.315Z,19.65
2023-08-08T11:19:53.245Z,19.58
2023-08-08T11:21:05.244Z,19.53
2023-08-08T11:22:15.877Z,19.47
2023-08-08T11:23:19.946Z,19.41
2023-08-08T11:24:22.891Z,19.36
2023-08-08T11:25:31.275Z,19.31
2023-08-08T11:26:35.674Z,19.20
2023-08-08T11:28:53.452Z,19.00
2023-08-08T11:29:58.012Z,18.89
2023-08-08T11:31:00.954Z,18.79
2023-08-08T11:32:04.719Z,18.66
2023-08-08T11:34:17.024Z,18.47
2023-08-08T11:35:23.723Z,18.41
2023-08-08T11:36:36.754Z,18.33
2023-08-08T11:37:40.111Z,18.24
2023-08-08T11:38:44.680Z,18.17
2023-08-08T11:39:47.967Z,18.11
2023-08-08T11:40:51.193Z,18.04
2023-08-08T11:41:55.738Z,18.04
2023-08-08T11:43:00.178Z,18.16
2023-08-08T11:44:05.144Z,18.30
2023-08-08T11:45:10.601Z,18.44
2023-08-08T11:46:14.085Z,18.59
2023-08-08T11:47:17.051Z,18.75
2023-08-08T11:48:23.320Z,18.93
2023-08-08T11:49:26.232Z,19.12
2023-08-08T11:50:30.791Z,19.29
2023-08-08T11:51:35.679Z,19.47
2023-08-08T11:52:43.442Z,19.62
2023-08-08T11:53:53.765Z,19.74
2023-08-08T11:54:56.848Z,19.88
2023-08-08T11:56:01.300Z,20.01
2023-08-08T11:57:04.412Z,20.16
2023-08-08T11:58:07.432Z,20.28
2023-08-08T11:59:10.570Z,20.39
2023-08-08T12:00:13.965Z,20.55
2023-08-08T12:01:18.235Z,20.72
2023-08-08T12:02:21.238Z,20.90
2023-08-08T12:03:27.108Z,21.05
2023-08-08T12:04:30.501Z,21.16
2023-08-08T12:05:39.116Z,21.25
2023-08-08T12:06:45.117Z,21.37
2023-08-08T12:07:48.343Z,21.48
2023-08-08T12:08:51.350Z,21.59
2023-08-08T12:09:54.203Z,21.69
2023-08-08T12:10:58.158Z,21.84
2023-08-08T12:12:02.109Z,22.06
2023-08-08T12:13:05.966Z,22.31
2023-08-08T12:14:15.008Z,22.56
2023-08-08T12:15:18.131Z,22.68
2023-08-08T12:16:21.024Z,22.64
2023-08-08T12:17:24.017Z,22.53
2023-08-08T12:18:27.250Z,22.53
2023-08-08T12:19:30.643Z,22.52
2023-08-08T12:20:33.687Z,22.58
2023-08-08T12:21:36.910Z,22.64
2023-08-08T12:22:39.715Z,22.72
2023-08-08T12:23:42.622Z,22.85
2023-08-08T12:24:45.614Z,23.02
2023-08-08T12:25:48.903Z,23.20
2023-08-08T12:26:51.940Z,23.34
2023-08-08T12:27:54.877Z,23.31
2023-08-08T12:28:58.033Z,23.17
2023-08-08T12:30:00.910Z,23.02
2023-08-08T12:31:04.000Z,22.96
2023-08-08T12:32:09.117Z,23.04
2023-08-08T12:33:12.240Z,23.22
2023-08-08T12:34:15.264Z,23.46
2023-08-08T12:35:18.250Z,23.71
2023-08-08T12:36:21.372Z,23.96
2023-08-08T12:37:25.166Z,24.18
2023-08-08T12:38:28.041Z,24.27
2023-08-08T12:39:31.232Z,24.17
2023-08-08T12:40:35.002Z,23.99
2023-08-08T12:41:38.005Z,24.00
2023-08-08T12:42:41.234Z,24.13
2023-08-08T12:43:44.489Z,24.34
2023-08-08T12:44:48.188Z,24.48
2023-08-08T12:45:51.019Z,24.69
2023-08-08T12:46:54.208Z,24.93
2023-08-08T12:47:57.152Z,25.18
2023-08-08T12:49:00.300Z,25.44
2023-08-08T12:50:04.017Z,25.69
2023-08-08T12:51:08.692Z,25.86
2023-08-08T12:52:11.625Z,25.90
2023-08-08T12:53:14.859Z,26.01
2023-08-08T12:54:17.788Z,26.13
2023-08-08T12:55:21.025Z,26.05
2023-08-08T12:56:24.043Z,25.94
2023-08-08T12:57:26.987Z,26.01
2023-08-08T12:58:29.824Z,26.19
2023-08-08T12:59:32.808Z,26.37
2023-08-08T13:00:35.914Z,26.56
2023-08-08T13:01:38.805Z,26.53
2023-08-08T13:02:42.109Z,26.55
2023-08-08T13:03:51.153Z,26.61
2023-08-08T13:04:58.857Z,26.81
2023-08-08T13:06:01.983Z,26.95
2023-08-08T13:07:05.287Z,27.07
2023-08-08T13:08:08.178Z,27.20
2023-08-08T13:09:11.666Z,27.35
2023-08-08T13:10:14.563Z,27.46
2023-08-08T13:11:17.681Z,27.57
2023-08-08T13:12:20.728Z,27.62
2023-08-08T13:13:26.185Z,27.65
2023-08-08T13:14:29.187Z,27.70
2023-08-08T13:15:32.010Z,27.78
2023-08-08T13:16:35.126Z,27.91
2023-08-08T13:17:38.347Z,28.02
2023-08-08T13:18:41.365Z,28.11
2023-08-08T13:19:44.272Z,28.16
2023-08-08T13:20:47.310Z,28.17
2023-08-08T13:21:51.533Z,27.97
2023-08-08T13:22:55.392Z,27.59
2023-08-08T13:23:58.831Z,27.17
2023-08-08T13:25:01.754Z,26.78
2023-08-08T13:26:04.881Z,26.43
2023-08-08T13:27:08.094Z,26.11
2023-08-08T13:28:11.076Z,25.94
2023-08-08T13:29:13.998Z,25.75
2023-08-08T13:30:17.784Z,25.64
2023-08-08T13:31:20.856Z,25.60
2023-08-08T13:32:24.238Z,25.49
2023-08-08T13:33:27.227Z,25.15
2023-08-08T13:34:30.160Z,24.80
2023-08-08T13:35:33.224Z,24.46
2023-08-08T13:36:36.316Z,24.17
2023-08-08T13:37:39.361Z,23.89
2023-08-08T13:38:42.259Z,23.63
2023-08-08T13:39:46.082Z,23.41
2023-08-08T13:40:48.982Z,23.23
2023-08-08T13:41:51.972Z,23.15
2023-08-08T13:42:55.091Z,23.03
2023-08-08T13:43:58.097Z,22.86
2023-08-08T13:45:01.288Z,22.68
2023-08-08T13:46:08.736Z,22.46
2023-08-08T13:47:11.789Z,22.23
2023-08-08T13:48:14.717Z,22.00
2023-08-08T13:49:17.729Z,21.82